Time;durP1;ratioP1;P1;durP2;ratioP2;P2;SDS_P1;SDS_P2;PMS_P1;PMS_P2;Temp;Humidity;BMP_temperature;BMP_pressure;BME280_temperature;BME280_humidity;BME280_pressure;Samples;Min_cycle;Max_cycle;Signal;HPM_P1;HPM_P2
2022/12/18 00:01:57;;;;;;;8.10;7.30;;;;;;;-4.88;79.50;102352.88;5069782;28;20205;-81
2022/12/18 00:04:25;;;;;;;8.67;7.20;;;;;;;-4.87;79.32;102369.97;5074040;28;20341;-80
2022/12/18 00:06:53;;;;;;;10.80;6.97;;;;;;;-4.90;79.35;102362.97;5074099;28;20237;-79
2022/12/18 00:09:21;;;;;;;9.33;8.47;;;;;;;-4.90;79.69;102360.41;5074033;28;20216;-80
2022/12/18 00:11:47;;;;;;;9.20;7.77;;;;;;;-4.88;79.63;102352.88;5073058;28;20208;-79
2022/12/18 00:14:14;;;;;;;10.23;7.57;;;;;;;-4.91;79.58;102345.03;5073221;28;20216;-80
2022/12/18 00:16:43;;;;;;;8.00;7.30;;;;;;;-4.86;79.57;102342.03;5073872;28;20233;-80
2022/12/18 00:19:10;;;;;;;6.80;6.10;;;;;;;-4.86;79.88;102342.03;5074596;28;20204;-79
2022/12/18 00:21:40;;;;;;;6.53;5.90;;;;;;;-4.90;80.61;102345.13;5073113;28;20684;-80
2022/12/18 00:24:09;;;;;;;6.73;5.80;;;;;;;-4.83;80.72;102333.75;5073941;28;20208;-81
2022/12/18 00:26:37;;;;;;;6.30;5.63;;;;;;;-4.97;80.98;102322.53;5073429;28;20221;-79
2022/12/18 00:29:07;;;;;;;7.97;5.43;;;;;;;-4.92;81.30;102313.56;5073800;28;20209;-80
2022/12/18 00:31:34;;;;;;;6.07;5.40;;;;;;;-4.84;80.92;102309.91;5073768;28;20208;-80
2022/12/18 00:34:00;;;;;;;7.70;6.67;;;;;;;-4.71;81.46;102311.72;5074451;28;20212;-80
2022/12/18 00:36:29;;;;;;;5.80;5.30;;;;;;;-4.70;81.01;102313.47;5073949;28;20958;-79
2022/12/18 00:38:58;;;;;;;5.97;5.30;;;;;;;-4.67;80.56;102311.16;5073952;28;20213;-84
2022/12/18 00:44:12;;;;;;;7.53;5.90;;;;;;;-4.69;80.50;102320.38;5073302;28;20212;-81
2022/12/18 00:46:38;;;;;;;5.97;5.47;;;;;;;-4.66;80.41;102323.16;5073693;28;20270;-79
2022/12/18 00:49:05;;;;;;;8.20;5.77;;;;;;;-4.64;81.06;102335.97;5073149;28;20213;-82
2022/12/18 00:51:32;;;;;;;6.03;5.43;;;;;;;-4.61;81.00;102336.22;5072790;28;20205;-81
2022/12/18 00:53:58;;;;;;;6.43;5.77;;;;;;;-4.55;80.32;102340.88;5072967;28;20217;-79
2022/12/18 00:56:26;;;;;;;5.77;5.00;;;;;;;-4.54;80.15;102347.72;5072532;28;20737;-79
2022/12/18 00:58:53;;;;;;;7.33;5.20;;;;;;;-4.52;79.76;102353.81;5072722;28;20208;-80
2022/12/18 01:01:19;;;;;;;6.30;5.70;;;;;;;-4.54;79.89;102357.94;5072094;28;20591;-79
2022/12/18 01:03:46;;;;;;;5.83;5.23;;;;;;;-4.51;79.81;102355.63;5072433;28;20299;-79
2022/12/18 01:06:14;;;;;;;6.13;5.53;;;;;;;-4.52;79.59;102364.94;5071582;28;20268;-80
2022/12/18 01:08:40;;;;;;;7.77;5.57;;;;;;;-4.53;79.54;102368.25;5071638;28;20671;-77
2022/12/18 01:11:08;;;;;;;6.43;5.67;;;;;;;-4.55;79.75;102372.34;5071529;28;20282;-80
2022/12/18 01:13:36;;;;;;;6.67;5.73;;;;;;;-4.56;79.47;102378.19;5071088;28;20209;-79
2022/12/18 01:16:03;;;;;;;5.23;4.60;;;;;;;-4.52;79.44;102384.41;5070579;28;20229;-79
2022/12/18 01:18:29;;;;;;;5.90;5.30;;;;;;;-4.51;78.89;102392.16;5071697;28;20584;-79
2022/12/18 01:20:56;;;;;;;6.00;5.27;;;;;;;-4.51;79.18;102401.47;5072015;28;20295;-79
2022/12/18 01:23:22;;;;;;;6.47;5.27;;;;;;;-4.51;78.71;102412.56;5072165;28;20216;-81
2022/12/18 01:25:49;;;;;;;6.90;6.27;;;;;;;-4.59;79.39;102428.94;5078518;23;20233;-77
2022/12/18 01:28:15;;;;;;;5.80;5.03;;;;;;;-4.60;79.03;102417.88;5054115;28;20220;-77
2022/12/18 01:30:43;;;;;;;6.17;5.53;;;;;;;-4.65;79.10;102418.31;5054254;28;20206;-77
2022/12/18 01:33:09;;;;;;;5.53;4.93;;;;;;;-4.75;79.38;102421.81;5056330;28;20201;-77
2022/12/18 01:35:41;;;;;;;6.47;5.07;;;;;;;-4.72;79.24;102418.59;5074421;28;20228;-77
2022/12/18 01:38:07;;;;;;;6.00;5.40;;;;;;;-4.71;79.46;102416.19;5074394;28;20236;-77
2022/12/18 01:40:34;;;;;;;5.60;5.00;;;;;;;-4.70;79.50;102417.06;5074637;28;20216;-79
2022/12/18 01:43:00;;;;;;;5.17;4.67;;;;;;;-4.73;79.43;102419.38;5075785;28;20209;-76
2022/12/18 01:45:28;;;;;;;5.67;4.87;;;;;;;-4.75;79.33;102428.56;5074063;28;20769;-78
2022/12/18 01:47:58;;;;;;;9.33;5.03;;;;;;;-4.76;79.20;102430.22;5074449;28;20216;-77
2022/12/18 01:50:29;;;;;;;6.07;5.47;;;;;;;-4.73;79.41;102430.47;5073958;28;20200;-76
2022/12/18 01:53:00;;;;;;;6.30;5.57;;;;;;;-4.81;79.29;102426.44;5073984;28;20227;-77
2022/12/18 01:55:30;;;;;;;7.63;6.07;;;;;;;-4.85;79.34;102424.44;5073878;28;20242;-77
2022/12/18 01:57:59;;;;;;;6.07;5.47;;;;;;;-4.88;78.79;102426.75;5073843;28;20231;-77
2022/12/18 02:00:27;;;;;;;6.33;5.70;;;;;;;-4.91;79.68;102424.88;5073704;28;20239;-77
2022/12/18 02:02:54;;;;;;;8.50;5.87;;;;;;;-4.98;79.63;102420.06;5074230;28;20205;-79
2022/12/18 02:05:32;;;;;;;8.73;7.40;;;;;;;-4.94;79.51;102419.53;5074179;28;20613;-77
2022/12/18 02:08:09;;;;;;;7.87;6.33;;;;;;;-4.92;79.78;102412.00;5073363;28;20200;-77
2022/12/18 02:10:44;;;;;;;6.80;6.17;;;;;;;-4.94;79.16;102411.88;5075088;28;20671;-79
2022/12/18 02:13:15;;;;;;;8.33;7.20;;;;;;;-4.91;79.48;102418.91;5073247;28;20227;-79
2022/12/18 02:15:51;;;;;;;8.40;7.63;;;;;;;-4.97;79.42;102419.31;5075040;28;20279;-79
2022/12/18 02:18:22;;;;;;;8.50;7.70;;;;;;;-4.94;79.38;102413.56;5074733;28;20696;-78
2022/12/18 02:20:56;;;;;;;11.07;7.93;;;;;;;-4.96;79.24;102412.56;5073359;28;20208;-77
2022/12/18 02:23:41;;;;;;;9.33;8.33;;;;;;;-5.04;79.75;102414.50;5074420;28;20575;-79
2022/12/18 02:26:16;;;;;;;10.70;7.53;;;;;;;-4.97;79.55;102408.22;5076560;28;20228;-79
2022/12/18 02:28:46;;;;;;;12.03;7.87;;;;;;;-4.98;79.61;102404.78;5074067;28;20204;-79
2022/12/18 02:31:20;;;;;;;8.40;7.50;;;;;;;-4.99;80.13;102386.09;5074674;28;20204;-78
2022/12/18 02:33:49;;;;;;;8.43;7.53;;;;;;;-5.10;79.26;102404.75;5073257;28;20209;-77
2022/12/18 02:36:19;;;;;;;10.53;8.93;;;;;;;-5.05;79.98;102395.81;5073360;28;20233;-77
2022/12/18 02:38:47;;;;;;;9.57;8.63;;;;;;;-5.04;79.45;102391.59;5072817;28;20308;-77
2022/12/18 02:41:17;;;;;;;10.27;7.70;;;;;;;-5.12;79.30;102398.66;5072406;28;20208;-77
2022/12/18 02:43:47;;;;;;;8.87;8.00;;;;;;;-5.12;79.57;102391.00;5073164;28;20679;-77
2022/12/18 02:46:28;;;;;;;8.30;7.50;;;;;;;-5.12;79.69;102393.56;5073483;28;20236;-77
2022/12/18 02:49:02;;;;;;;8.37;7.53;;;;;;;-5.16;79.25;102396.63;5072855;28;20216;-77
2022/12/18 02:51:35;;;;;;;9.07;8.17;;;;;;;-5.21;79.19;102395.44;5072871;28;20200;-78
2022/12/18 02:54:10;;;;;;;8.13;7.33;;;;;;;-5.17;79.65;102387.25;5073299;28;20209;-77
2022/12/18 02:56:44;;;;;;;8.50;7.57;;;;;;;-5.16;79.14;102389.00;5073000;28;20208;-77
2022/12/18 02:59:15;;;;;;;8.83;7.83;;;;;;;-5.18;79.72;102401.59;5075269;28;20200;-78
2022/12/18 03:01:52;;;;;;;9.73;8.43;;;;;;;-5.28;79.49;102401.69;5075091;28;20204;-79
2022/12/18 03:04:25;;;;;;;8.80;8.00;;;;;;;-5.32;79.34;102396.25;5073578;28;20224;-76
2022/12/18 03:06:55;;;;;;;12.17;8.40;;;;;;;-5.35;80.12;102389.28;5072855;28;20227;-77
2022/12/18 03:09:29;;;;;;;8.33;7.47;;;;;;;-5.33;79.62;102382.66;5072523;28;20208;-77
2022/12/18 03:14:53;;;;;;;7.63;6.93;;;;;;;-5.34;79.83;102380.84;5072867;28;20277;-77
2022/12/18 03:17:23;;;;;;;8.30;7.47;;;;;;;-5.37;80.08;102370.47;5072504;28;20235;-77
2022/12/18 03:19:52;;;;;;;7.80;7.00;;;;;;;-5.36;80.07;102366.25;5065977;28;20194;-77
2022/12/18 03:22:19;;;;;;;6.70;5.97;;;;;;;-5.39;79.80;102375.41;5052674;28;20209;-79
2022/12/18 03:24:47;;;;;;;7.17;6.47;;;;;;;-5.43;79.80;102373.41;5052825;28;20229;-77
2022/12/18 03:27:18;;;;;;;8.77;7.87;;;;;;;-5.44;80.40;102355.47;5052532;28;20200;-77
2022/12/18 03:29:49;;;;;;;8.17;6.60;;;;;;;-5.40;80.68;102340.53;5052020;28;20205;-77
2022/12/18 03:32:22;;;;;;;9.87;6.57;;;;;;;-5.41;81.67;102330.25;5052371;28;20259;-77
2022/12/18 03:34:52;;;;;;;8.53;6.63;;;;;;;-5.41;81.68;102312.44;5052018;28;20229;-77
2022/12/18 03:37:19;;;;;;;6.93;6.23;;;;;;;-5.40;81.85;102302.38;5052343;28;20240;-77
2022/12/18 03:39:45;;;;;;;10.50;7.23;;;;;;;-5.40;82.10;102288.78;5058257;28;20209;-77
2022/12/18 03:42:20;;;;;;;7.57;6.87;;;;;;;-5.36;82.77;102280.59;5056019;28;20213;-78
2022/12/18 03:44:57;;;;;;;8.73;6.90;;;;;;;-5.35;82.77;102262.03;5057164;28;20237;-77
2022/12/18 03:47:28;;;;;;;6.43;5.83;;;;;;;-5.26;82.70;102259.28;5056536;28;20200;-79
2022/12/18 03:50:03;;;;;;;8.07;5.90;;;;;;;-5.23;82.69;102254.44;5056672;28;20695;-77
2022/12/18 03:52:36;;;;;;;8.00;5.87;;;;;;;-5.21;82.18;102261.41;5056281;28;20236;-77
2022/12/18 03:55:06;;;;;;;10.57;5.80;;;;;;;-5.19;82.28;102256.41;5056413;28;20230;-79
2022/12/18 03:57:34;;;;;;;4.93;4.53;;;;;;;-5.14;82.54;102237.25;5058318;28;20221;-79
2022/12/18 04:00:04;;;;;;;6.67;5.70;;;;;;;-5.05;83.09;102237.06;5056404;28;20210;-77
2022/12/18 04:02:34;;;;;;;7.40;5.50;;;;;;;-5.05;82.65;102237.06;5056474;28;20205;-79
2022/12/18 04:05:05;;;;;;;7.80;5.50;;;;;;;-5.03;82.52;102248.25;5058541;28;20228;-79
2022/12/18 04:07:33;;;;;;;6.93;5.57;;;;;;;-5.09;82.13;102252.91;5056981;28;20197;-79
2022/12/18 04:10:02;;;;;;;6.20;5.60;;;;;;;-5.02;82.51;102255.97;5057880;28;20206;-79
2022/12/18 04:12:30;;;;;;;6.20;5.60;;;;;;;-5.06;82.37;102253.97;5057863;28;20213;-79
2022/12/18 04:14:58;;;;;;;6.83;6.13;;;;;;;-5.02;82.20;102262.75;5058682;28;20221;-79
2022/12/18 04:17:24;;;;;;;7.27;6.23;;;;;;;-4.95;82.09;102271.75;5057018;28;20229;-79
2022/12/18 04:19:51;;;;;;;7.53;6.70;;;;;;;-4.93;82.12;102271.06;5058092;28;20241;-78
2022/12/18 04:22:17;;;;;;;9.13;5.60;;;;;;;-4.95;82.10;102276.84;5057446;28;20236;-78
2022/12/18 04:24:44;;;;;;;5.87;5.20;;;;;;;-5.03;82.35;102284.78;5056935;28;20244;-79
2022/12/18 04:27:10;;;;;;;7.30;6.53;;;;;;;-4.90;81.76;102281.47;5057110;28;20205;-79
2022/12/18 04:29:37;;;;;;;6.33;5.73;;;;;;;-4.85;81.45;102287.78;5056366;28;20669;-79
2022/12/18 04:32:05;;;;;;;8.47;6.17;;;;;;;-4.80;81.03;102289.03;5054807;28;20204;-77
2022/12/18 04:34:31;;;;;;;6.40;5.80;;;;;;;-4.71;80.91;102299.00;5054739;28;20221;-76
2022/12/18 04:36:58;;;;;;;5.97;5.47;;;;;;;-4.69;80.73;102315.28;5054483;28;20218;-77
2022/12/18 04:39:25;;;;;;;4.90;4.40;;;;;;;-4.62;80.36;102320.06;5055749;28;20221;-79
2022/12/18 04:41:51;;;;;;;5.60;5.07;;;;;;;-4.65;80.14;102334.22;5055748;28;20205;-77
2022/12/18 04:44:18;;;;;;;6.13;5.50;;;;;;;-4.63;79.81;102340.31;5054742;28;20226;-77
2022/12/18 04:46:45;;;;;;;5.80;5.20;;;;;;;-4.65;79.52;102352.06;5054540;28;20224;-77
2022/12/18 04:49:12;;;;;;;7.40;5.30;;;;;;;-4.71;79.25;102362.69;5053695;28;20768;-77
2022/12/18 04:51:39;;;;;;;5.43;4.93;;;;;;;-4.70;79.86;102373.75;5053712;28;20688;-79
2022/12/18 04:54:06;;;;;;;8.40;5.27;;;;;;;-4.66;79.83;102373.19;5055941;28;20229;-79
2022/12/18 04:56:32;;;;;;;5.13;4.63;;;;;;;-4.62;79.50;102376.09;5056289;28;20575;-79
2022/12/18 04:58:59;;;;;;;5.80;5.17;;;;;;;-4.60;79.19;102383.84;5056457;28;20221;-76
2022/12/18 05:01:25;;;;;;;5.83;5.07;;;;;;;-4.52;79.57;102386.94;5054103;28;20205;-79
2022/12/18 05:03:52;;;;;;;7.20;5.77;;;;;;;-4.67;79.29;102399.47;5056220;28;20216;-79
2022/12/18 05:06:20;;;;;;;6.30;5.67;;;;;;;-4.68;79.67;102407.88;5054904;28;20209;-77
2022/12/18 05:08:47;;;;;;;8.03;5.23;;;;;;;-4.67;78.85;102402.88;5056410;28;20209;-78
2022/12/18 05:11:15;;;;;;;5.90;5.30;;;;;;;-4.66;79.23;102406.31;5056160;28;20209;-79
2022/12/18 05:13:42;;;;;;;7.63;4.97;;;;;;;-4.70;78.82;102405.19;5055009;28;20244;-78
2022/12/18 05:16:09;;;;;;;6.83;6.07;;;;;;;-4.71;79.27;102407.66;5053690;28;20604;-77
2022/12/18 05:18:35;;;;;;;5.47;4.97;;;;;;;-4.70;78.94;102412.84;5053933;28;20303;-77
2022/12/18 05:21:02;;;;;;;6.30;5.70;;;;;;;-4.75;79.18;102428.56;5054201;28;20209;-77
2022/12/18 05:23:30;;;;;;;6.67;5.03;;;;;;;-4.77;79.19;102417.38;5054010;28;20201;-78
2022/12/18 05:25:59;;;;;;;6.03;5.23;;;;;;;-4.82;79.20;102417.03;5054214;28;20237;-77
2022/12/18 05:28:27;;;;;;;5.67;5.17;;;;;;;-4.75;79.46;102413.28;5053771;28;20206;-78
2022/12/18 05:30:55;;;;;;;6.00;5.20;;;;;;;-4.74;79.25;102428.66;5055630;28;20210;-78
2022/12/18 05:33:23;;;;;;;5.63;5.10;;;;;;;-4.66;79.00;102422.50;5055419;28;20210;-80
2022/12/18 05:35:51;;;;;;;5.17;4.67;;;;;;;-4.57;78.79;102434.16;5056538;28;20229;-79
2022/12/18 05:38:18;;;;;;;9.20;5.10;;;;;;;-4.54;78.33;102437.81;5065475;28;20233;-79
2022/12/18 05:40:46;;;;;;;5.30;4.73;;;;;;;-4.50;78.45;102447.47;5071216;28;20656;-77
2022/12/18 05:43:12;;;;;;;5.10;4.40;;;;;;;-4.45;78.41;102456.34;5059839;28;20209;-78
2022/12/18 05:45:39;;;;;;;7.53;4.43;;;;;;;-4.44;77.48;102464.84;5068893;28;20230;-79
2022/12/18 05:48:07;;;;;;;5.53;4.90;;;;;;;-4.39;77.62;102476.31;5074521;28;20265;-80
2022/12/18 05:50:35;;;;;;;6.10;5.10;;;;;;;-4.27;77.71;102481.44;5062730;28;20202;-78
2022/12/18 05:53:01;;;;;;;5.43;4.63;;;;;;;-4.31;76.61;102497.28;5053957;28;20758;-78
2022/12/18 05:55:28;;;;;;;6.77;4.70;;;;;;;-4.34;76.64;102520.88;5056894;28;20236;-79
2022/12/18 05:57:55;;;;;;;6.90;5.13;;;;;;;-4.26;76.39;102527.44;5054180;28;20240;-77
2022/12/18 06:00:22;;;;;;;7.40;4.80;;;;;;;-4.23;76.51;102530.19;5053824;28;20220;-76
2022/12/18 06:02:48;;;;;;;7.23;5.30;;;;;;;-4.30;76.09;102556.03;5053619;28;20572;-76
2022/12/18 06:05:15;;;;;;;5.63;5.00;;;;;;;-4.20;75.96;102572.91;5054207;28;20225;-76
2022/12/18 06:07:41;;;;;;;5.77;4.97;;;;;;;-4.28;76.77;102582.53;5053787;28;20206;-77
2022/12/18 06:10:08;;;;;;;6.03;4.30;;;;;;;-4.24;77.08;102573.41;5053075;28;20209;-77
2022/12/18 06:12:35;;;;;;;6.33;4.97;;;;;;;-4.24;76.41;102566.69;5053023;28;20259;-76
2022/12/18 06:15:02;;;;;;;6.23;4.50;;;;;;;-4.21;76.22;102566.91;5053412;28;20639;-77
2022/12/18 06:17:29;;;;;;;4.70;4.20;;;;;;;-4.14;76.68;102564.81;5053895;28;20212;-77
2022/12/18 06:19:56;;;;;;;4.63;4.07;;;;;;;-4.22;76.25;102564.25;5053391;28;20256;-77
2022/12/18 06:22:23;;;;;;;5.47;5.00;;;;;;;-4.19;76.54;102574.66;5053797;28;20213;-77
2022/12/18 06:24:49;;;;;;;5.30;4.23;;;;;;;-4.16;76.67;102574.00;5052861;28;20727;-77
2022/12/18 06:27:15;;;;;;;5.07;4.57;;;;;;;-4.10;76.04;102574.44;5053364;28;20208;-77
2022/12/18 06:29:42;;;;;;;5.00;4.50;;;;;;;-4.01;75.82;102575.16;5053483;28;20197;-76
2022/12/18 06:32:10;;;;;;;6.07;4.20;;;;;;;-4.04;75.64;102580.03;5054653;28;20580;-79
2022/12/18 06:34:38;;;;;;;4.50;4.10;;;;;;;-4.11;76.67;102578.69;5054316;28;20275;-78
2022/12/18 06:37:04;;;;;;;5.23;4.70;;;;;;;-4.13;76.26;102575.13;5053948;28;20197;-77
2022/12/18 06:39:31;;;;;;;5.93;3.93;;;;;;;-4.19;76.34;102577.22;5052982;28;20312;-77
2022/12/18 06:41:57;;;;;;;6.83;5.10;;;;;;;-4.24;76.50;102565.75;5052703;28;20212;-77
2022/12/18 06:44:24;;;;;;;4.50;4.10;;;;;;;-4.19;76.35;102570.44;5052798;28;20603;-77
2022/12/18 06:46:50;;;;;;;4.10;3.70;;;;;;;-4.21;76.36;102561.78;5052823;28;20213;-76
2022/12/18 06:49:18;;;;;;;5.00;4.50;;;;;;;-4.21;75.87;102576.22;5053076;28;20201;-76
2022/12/18 06:51:44;;;;;;;5.93;3.87;;;;;;;-4.44;75.69;102590.66;5052250;28;20205;-77
2022/12/18 06:54:11;;;;;;;5.83;4.20;;;;;;;-4.54;76.77;102589.81;5052614;28;20206;-77
2022/12/18 06:56:37;;;;;;;4.47;4.07;;;;;;;-4.67;76.74;102576.13;5053447;28;20209;-77
2022/12/18 06:59:04;;;;;;;5.80;4.80;;;;;;;-4.78;77.27;102561.69;5052904;28;20233;-76
2022/12/18 07:01:30;;;;;;;5.97;4.20;;;;;;;-4.86;77.77;102544.91;5052212;28;20209;-76
2022/12/18 07:03:58;;;;;;;4.77;4.03;;;;;;;-4.75;77.98;102533.91;5052416;28;20205;-76
2022/12/18 07:06:26;;;;;;;4.70;4.27;;;;;;;-4.70;78.05;102524.06;5052640;28;20209;-77
2022/12/18 07:08:54;;;;;;;6.73;4.23;;;;;;;-4.65;78.33;102530.41;5052650;28;20209;-77
2022/12/18 07:11:21;;;;;;;7.33;4.90;;;;;;;-4.61;78.20;102515.44;5051997;28;20232;-77
2022/12/18 07:13:48;;;;;;;5.93;4.43;;;;;;;-4.59;77.98;102511.38;5051207;28;20205;-76
2022/12/18 07:16:16;;;;;;;4.37;3.93;;;;;;;-4.56;78.49;102509.81;5051948;28;20225;-77
2022/12/18 07:18:43;;;;;;;4.43;4.00;;;;;;;-4.58;78.48;102504.59;5052489;28;20236;-76
2022/12/18 07:21:14;;;;;;;5.17;4.17;;;;;;;-4.50;78.56;102495.91;5052017;28;20209;-78
2022/12/18 07:23:42;;;;;;;5.47;4.17;;;;;;;-4.49;78.94;102502.75;5054726;28;20220;-78
2022/12/18 07:26:12;;;;;;;4.73;4.33;;;;;;;-4.37;78.70;102491.72;5086668;23;20289;-80
2022/12/18 07:28:40;;;;;;;5.47;4.23;;;;;;;-4.30;78.64;102493.94;5094190;28;20215;-82
2022/12/18 07:31:08;;;;;;;4.97;4.27;;;;;;;-4.26;78.70;102498.47;5093718;28;20246;-81
2022/12/18 07:33:36;;;;;;;4.60;4.20;;;;;;;-4.23;78.38;102501.28;5093792;28;20208;-80
2022/12/18 07:36:06;;;;;;;4.67;3.97;;;;;;;-4.26;78.89;102496.84;5094045;28;20244;-81
2022/12/18 07:38:34;;;;;;;4.53;3.73;;;;;;;-4.20;78.61;102488.75;5094125;28;20234;-81
2022/12/18 07:41:03;;;;;;;4.50;3.97;;;;;;;-4.24;79.37;102490.19;5093601;28;20302;-82
2022/12/18 07:43:34;;;;;;;4.83;4.37;;;;;;;-4.22;79.12;102486.09;5094126;28;20206;-82
2022/12/18 07:46:01;;;;;;;4.27;3.83;;;;;;;-4.24;79.92;102481.63;5094010;28;20227;-81
2022/12/18 07:48:28;;;;;;;5.50;3.93;;;;;;;-4.27;79.65;102477.19;5093746;28;20196;-80
2022/12/18 07:50:54;;;;;;;4.40;4.00;;;;;;;-4.21;79.58;102470.00;5093591;28;20204;-81
2022/12/18 07:53:21;;;;;;;4.20;3.80;;;;;;;-4.20;79.82;102459.03;5093644;28;20204;-82
2022/12/18 07:55:48;;;;;;;4.60;3.97;;;;;;;-4.13;79.70;102457.81;5093938;28;20741;-81
2022/12/18 07:58:16;;;;;;;5.43;4.43;;;;;;;-4.06;79.62;102444.75;5093862;28;20218;-81
2022/12/18 08:00:51;;;;;;;4.60;4.10;;;;;;;-4.09;79.52;102453.84;5093435;28;20212;-81
2022/12/18 08:03:19;;;;;;;6.63;3.83;;;;;;;-4.05;79.64;102448.19;5094248;28;20208;-81
2022/12/18 08:05:46;;;;;;;4.60;3.90;;;;;;;-3.98;79.61;102445.31;5093993;28;20243;-82
2022/12/18 08:08:13;;;;;;;4.53;3.20;;;;;;;-3.92;79.17;102440.66;5093241;28;20236;-82
2022/12/18 08:10:40;;;;;;;5.70;3.80;;;;;;;-3.87;79.29;102449.50;5093302;28;20200;-81
2022/12/18 08:13:08;;;;;;;5.83;4.07;;;;;;;-3.82;78.88;102460.06;5093442;28;20204;-81
2022/12/18 08:15:36;;;;;;;5.33;4.63;;;;;;;-3.85;78.99;102467.47;5093195;28;20783;-81
2022/12/18 08:18:03;;;;;;;4.90;4.00;;;;;;;-3.74;78.91;102456.41;5093329;28;20203;-82
2022/12/18 08:20:29;;;;;;;7.83;4.13;;;;;;;-3.73;78.75;102462.38;5088318;28;20332;-81
2022/12/18 08:22:57;;;;;;;5.03;4.43;;;;;;;-3.73;78.70;102459.81;5073413;28;20216;-81
2022/12/18 08:25:24;;;;;;;4.83;4.33;;;;;;;-3.74;78.66;102460.63;5075411;28;20611;-82
2022/12/18 08:27:51;;;;;;;4.83;4.07;;;;;;;-3.76;78.33;102459.63;5075685;28;20201;-82
2022/12/18 08:30:17;;;;;;;5.30;4.23;;;;;;;-3.76;78.09;102457.94;5076777;28;20215;-83
2022/12/18 08:32:45;;;;;;;4.57;3.97;;;;;;;-3.75;78.96;102452.06;5084883;28;20200;-80
2022/12/18 08:35:12;;;;;;;4.47;4.07;;;;;;;-3.73;78.59;102453.03;5095821;28;20318;-81
2022/12/18 08:37:39;;;;;;;4.47;3.40;;;;;;;-3.66;78.85;102457.81;5096821;28;20208;-81
2022/12/18 08:40:07;;;;;;;4.53;3.37;;;;;;;-3.56;78.31;102450.84;5096118;28;20310;-79
2022/12/18 08:45:18;;;;;;;4.17;3.53;;;;;;;-3.53;78.00;102459.56;5096238;28;20296;-81
2022/12/18 08:47:46;;;;;;;4.07;3.17;;;;;;;-3.45;78.07;102462.66;5096250;28;20291;-80
2022/12/18 08:50:12;;;;;;;4.27;3.40;;;;;;;-3.37;77.84;102471.75;5096444;28;20200;-81
2022/12/18 08:52:39;;;;;;;5.37;3.50;;;;;;;-3.34;78.05;102473.66;5096537;28;20239;-81
2022/12/18 08:55:06;;;;;;;3.97;3.23;;;;;;;-3.33;77.83;102472.84;5096373;28;20204;-80
2022/12/18 08:57:33;;;;;;;3.97;3.27;;;;;;;-3.33;76.64;102493.28;5095919;28;20585;-81
2022/12/18 09:00:04;;;;;;;3.63;3.07;;;;;;;-3.26;76.16;102521.91;5096018;28;20242;-81
2022/12/18 09:02:31;;;;;;;4.10;2.67;;;;;;;-3.24;76.31;102539.91;5096286;28;20207;-81
2022/12/18 09:05:00;;;;;;;4.05;3.50;;;;;;;-3.13;76.27;102549.22;5095315;28;20471;-83
2022/12/18 09:07:31;;;;;;;3.57;3.27;;;;;;;-3.09;75.84;102552.88;5096008;28;20203;-82
2022/12/18 09:10:00;;;;;;;4.93;2.87;;;;;;;-3.07;76.65;102566.63;5095738;28;20203;-83
2022/12/18 09:12:27;;;;;;;3.43;2.43;;;;;;;-3.11;75.75;102549.31;5095460;28;20208;-80
2022/12/18 09:14:54;;;;;;;2.70;2.23;;;;;;;-3.04;75.70;102562.63;5095571;28;20581;-81
2022/12/18 09:17:21;;;;;;;3.23;2.27;;;;;;;-3.01;75.45;102570.53;5096158;28;20200;-81
2022/12/18 09:19:47;;;;;;;4.07;2.57;;;;;;;-2.92;75.77;102577.06;5095599;28;20797;-78
2022/12/18 09:22:17;;;;;;;5.07;2.60;;;;;;;-2.90;76.01;102588.28;5095560;28;20200;-80
2022/12/18 09:24:43;;;;;;;3.00;2.70;;;;;;;-2.88;75.20;102581.59;5095270;28;20208;-81
2022/12/18 09:27:10;;;;;;;3.77;2.43;;;;;;;-2.88;75.41;102586.72;5095402;28;20229;-81
2022/12/18 09:29:36;;;;;;;4.50;2.40;;;;;;;-2.83;74.88;102587.94;5095466;28;20210;-80
2022/12/18 09:32:03;;;;;;;2.83;2.33;;;;;;;-2.75;74.38;102594.47;5095094;28;20204;-79
2022/12/18 09:34:30;;;;;;;3.57;2.13;;;;;;;-2.70;74.04;102603.31;5095592;28;20204;-80
2022/12/18 09:36:56;;;;;;;2.63;2.00;;;;;;;-2.67;74.39;102613.78;5094562;28;20235;-81
2022/12/18 09:39:28;;;;;;;2.40;2.20;;;;;;;-2.73;73.89;102631.25;5094749;28;20315;-80
2022/12/18 09:41:58;;;;;;;5.30;2.10;;;;;;;-2.63;72.67;102648.13;5094423;28;20208;-80
2022/12/18 09:44:27;;;;;;;2.45;2.25;;;;;;;-2.54;72.49;102666.63;5095048;28;20463;-79
2022/12/18 09:47:10;;;;;;;2.63;2.43;;;;;;;-2.41;72.71;102684.63;5095390;28;20231;-80
2022/12/18 09:49:42;;;;;;;3.93;2.30;;;;;;;-2.40;72.13;102708.53;5095536;28;20220;-81
2022/12/18 09:52:14;;;;;;;3.27;2.30;;;;;;;-2.31;72.73;102719.41;5094617;28;20197;-80
2022/12/18 09:54:43;;;;;;;2.77;2.30;;;;;;;-2.26;72.47;102725.75;5087250;28;20286;-79
2022/12/18 09:57:14;;;;;;;2.50;2.03;;;;;;;-2.23;72.55;102727.63;5090977;28;20263;-79
2022/12/18 09:59:47;;;;;;;5.23;1.77;;;;;;;-2.20;72.26;102735.50;5094720;28;20220;-81
2022/12/18 10:02:20;;;;;;;2.63;1.97;;;;;;;-1.91;75.61;102693.16;5094728;28;20578;-80
2022/12/18 10:04:57;;;;;;;3.47;2.60;;;;;;;-1.52;80.51;102579.69;5094468;28;20208;-79
2022/12/18 10:07:35;;;;;;;4.50;2.53;;;;;;;-1.18;82.52;102419.56;5095147;28;20303;-80
2022/12/18 10:10:09;;;;;;;4.60;2.63;;;;;;;-0.72;89.47;102248.81;5094867;28;20264;-80
2022/12/18 10:12:48;;;;;;;4.57;3.03;;;;;;;-0.54;88.64;102124.97;5095206;28;20212;-82
2022/12/18 10:15:29;;;;;;;2.93;2.03;;;;;;;-0.49;83.49;102144.06;5094365;28;20623;-80
2022/12/18 10:18:04;;;;;;;3.17;2.20;;;;;;;-0.24;84.55;102188.19;5094609;28;20201;-81
2022/12/18 10:20:37;;;;;;;1.87;1.67;;;;;;;-0.27;77.22;102362.50;5094244;28;20310;-80
2022/12/18 10:23:15;;;;;;;3.43;1.77;;;;;;;-0.05;80.86;102423.63;5094730;28;20693;-81
2022/12/18 10:25:50;;;;;;;2.83;1.97;;;;;;;-0.07;73.02;102462.84;5094639;28;20263;-81
2022/12/18 10:28:21;;;;;;;3.10;1.50;;;;;;;0.13;75.06;102541.00;5094995;28;20285;-79
2022/12/18 10:30:48;;;;;;;3.07;2.07;;;;;;;0.39;75.10;102499.69;5094956;28;20213;-79
2022/12/18 10:33:17;;;;;;;3.07;1.57;;;;;;;0.74;78.48;102457.06;5090559;28;20206;-81
2022/12/18 10:35:49;;;;;;;1.73;1.60;;;;;;;0.65;72.80;102543.94;5081146;28;20225;-80
2022/12/18 10:38:26;;;;;;;1.70;1.60;;;;;;;0.97;76.92;102553.44;5084820;28;20208;-78
2022/12/18 10:40:55;;;;;;;3.17;1.60;;;;;;;0.94;72.76;102637.25;5088304;28;20211;-79
2022/12/18 10:43:25;;;;;;;2.10;1.60;;;;;;;0.90;69.23;102668.72;5090816;28;20206;-82
2022/12/18 10:46:04;;;;;;;1.60;1.50;;;;;;;0.80;67.59;102739.28;5087909;28;20232;-80
2022/12/18 10:48:31;;;;;;;2.60;1.80;;;;;;;0.57;67.29;102835.59;5091704;28;20200;-80
2022/12/18 10:50:58;;;;;;;2.83;2.63;;;;;;;0.46;68.30;102832.38;5090822;28;20211;-80
2022/12/18 10:53:27;;;;;;;2.97;1.60;;;;;;;0.30;65.94;102863.94;5091457;28;20210;-80
2022/12/18 10:55:56;;;;;;;2.03;1.60;;;;;;;0.33;70.43;102930.03;5090734;28;20228;-79
2022/12/18 10:58:26;;;;;;;2.27;1.50;;;;;;;0.44;71.60;102851.97;5090352;28;20208;-79
2022/12/18 11:01:09;;;;;;;11.43;3.80;;;;;;;0.49;71.43;102829.09;5081876;28;20270;-79
2022/12/18 11:03:37;;;;;;;2.10;1.50;;;;;;;0.64;74.42;102768.34;5079994;28;20212;-80
2022/12/18 11:06:07;;;;;;;2.77;1.40;;;;;;;0.43;65.33;102787.63;5078999;28;20252;-80
2022/12/18 11:08:34;;;;;;;2.10;1.80;;;;;;;0.51;68.19;102914.88;5078276;28;20240;-79
2022/12/18 11:11:02;;;;;;;2.73;1.83;;;;;;;0.56;72.75;102890.38;5078799;28;20201;-80
2022/12/18 11:13:31;;;;;;;1.30;1.20;;;;;;;0.49;69.45;102823.97;5079185;28;20212;-80
2022/12/18 11:15:59;;;;;;;2.13;1.50;;;;;;;0.61;69.98;102790.41;5079954;28;20226;-80
2022/12/18 11:18:28;;;;;;;1.53;1.30;;;;;;;0.57;69.16;102822.75;5078750;28;20222;-80
2022/12/18 11:20:58;;;;;;;1.97;1.20;;;;;;;0.40;66.10;102870.56;5077002;28;20224;-79
2022/12/18 11:23:25;;;;;;;2.23;1.40;;;;;;;0.42;67.16;102889.50;5074040;28;20206;-80
2022/12/18 11:25:55;;;;;;;1.43;1.30;;;;;;;0.58;71.25;102888.78;5074898;28;20246;-78
2022/12/18 11:28:38;;;;;;;2.00;1.10;;;;;;;0.70;70.66;102811.53;5076696;28;20243;-79
2022/12/18 11:31:27;;;;;;;1.67;1.57;;;;;;;0.74;69.28;102846.91;5077162;28;20200;-79
2022/12/18 11:34:00;;;;;;;1.27;1.07;;;;;;;0.87;72.40;102802.22;5070214;28;20205;-80
2022/12/18 11:36:32;;;;;;;1.83;1.20;;;;;;;0.97;73.48;102751.44;5083018;28;20234;-79
2022/12/18 11:39:06;;;;;;;1.77;1.57;;;;;;;0.99;73.72;102687.22;5086672;28;20205;-79
2022/12/18 11:44:28;;;;;;;1.93;1.43;;;;;;;0.83;73.09;102728.28;5081913;28;20250;-79
2022/12/18 11:47:01;;;;;;;2.90;1.53;;;;;;;0.52;67.59;102745.38;5089262;28;20227;-79